Time;durP1;ratioP1;P1;durP2;ratioP2;P2;SDS_P1;SDS_P2;PMS_P1;PMS_P2;Temp;Humidity;BMP_temperature;BMP_pressure;BME280_temperature;BME280_humidity;BME280_pressure;Samples;Min_cycle;Max_cycle;Signal;HPM_P1;HPM_P2
2021/04/29 00:01:37;;;;;;;135.18;30.38;;;;;;;;;;5052760;28;20021;-66
2021/04/29 00:04:02;;;;;;;186.45;32.53;;;;;;;;;;5052562;28;20064;-66
2021/04/29 00:06:27;;;;;;;143.07;27.88;;;;;;;;;;5053210;28;20401;-66
2021/04/29 00:08:53;;;;;;;125.60;25.98;;;;;;;;;;5051491;28;20025;-66
2021/04/29 00:11:18;;;;;;;136.10;26.40;;;;;;;;;;5052463;28;20492;-66
2021/04/29 00:13:43;;;;;;;168.63;31.50;;;;;;;;;;5052887;28;20029;-66
2021/04/29 00:16:09;;;;;;;146.32;27.35;;;;;;;;;;5053016;28;20458;-66
2021/04/29 00:18:34;;;;;;;219.13;35.33;;;;;;;;;;5052734;28;20041;-66
2021/04/29 00:20:59;;;;;;;189.07;30.15;;;;;;;;;;5056155;28;20091;-66
2021/04/29 00:23:25;;;;;;;154.68;28.35;;;;;;;;;;5056913;28;20021;-66
2021/04/29 00:25:50;;;;;;;130.05;28.45;;;;;;;;;;5057067;28;20420;-66
2021/04/29 00:28:16;;;;;;;117.03;26.98;;;;;;;;;;5056869;28;20037;-66
2021/04/29 00:30:41;;;;;;;147.15;29.60;;;;;;;;;;5056942;28;20016;-66
2021/04/29 00:33:06;;;;;;;166.85;30.33;;;;;;;;;;5056725;28;20036;-66
2021/04/29 00:35:32;;;;;;;146.23;29.42;;;;;;;;;;5055393;28;20037;-66
2021/04/29 00:37:57;;;;;;;139.68;27.55;;;;;;;;;;5055237;28;20453;-66
2021/04/29 00:40:22;;;;;;;151.00;29.05;;;;;;;;;;5056700;28;20124;-66
2021/04/29 00:42:47;;;;;;;141.13;27.55;;;;;;;;;;5056222;28;20430;-66
2021/04/29 00:45:13;;;;;;;214.48;33.38;;;;;;;;;;5056984;28;20025;-66
2021/04/29 00:47:38;;;;;;;112.75;27.00;;;;;;;;;;5056419;28;20059;-66
2021/04/29 00:50:05;;;;;;;116.45;27.30;;;;;;;;;;5056626;28;20064;-66
2021/04/29 00:52:30;;;;;;;136.60;27.77;;;;;;;;;;5055823;28;20023;-66
2021/04/29 00:54:55;;;;;;;166.70;29.60;;;;;;;;;;5056271;28;20037;-65
2021/04/29 00:57:21;;;;;;;150.13;29.65;;;;;;;;;;5056426;28;20124;-66
2021/04/29 00:59:46;;;;;;;138.45;27.17;;;;;;;;;;5055831;28;20029;-66
2021/04/29 01:02:11;;;;;;;153.88;28.50;;;;;;;;;;5056339;28;20090;-66
2021/04/29 01:04:41;;;;;;;114.80;26.00;;;;;;;;;;5055989;28;20041;-66
2021/04/29 01:07:11;;;;;;;121.22;26.50;;;;;;;;;;5056213;28;20013;-66
2021/04/29 01:09:41;;;;;;;80.15;22.15;;;;;;;;;;5056312;28;20028;-66
2021/04/29 01:12:09;;;;;;;104.00;24.85;;;;;;;;;;5055903;28;20477;-65
2021/04/29 01:14:35;;;;;;;122.50;26.13;;;;;;;;;;5056065;28;20017;-65
2021/04/29 01:17:01;;;;;;;84.85;21.75;;;;;;;;;;5056407;28;20036;-65
2021/04/29 01:19:32;;;;;;;188.02;29.00;;;;;;;;;;5055773;28;20041;-66
2021/04/29 01:21:58;;;;;;;165.35;27.13;;;;;;;;;;5055803;28;20095;-65
2021/04/29 01:24:25;;;;;;;122.88;23.63;;;;;;;;;;5055781;28;20128;-65
2021/04/29 01:26:52;;;;;;;115.72;24.48;;;;;;;;;;5055930;28;20033;-65
2021/04/29 01:29:25;;;;;;;87.50;22.80;;;;;;;;;;5055661;28;20075;-66
2021/04/29 01:31:53;;;;;;;101.82;22.38;;;;;;;;;;5054533;28;20413;-66
2021/04/29 01:34:20;;;;;;;133.82;26.70;;;;;;;;;;5055427;28;20048;-66
2021/04/29 01:36:46;;;;;;;83.32;19.75;;;;;;;;;;5055457;28;20465;-66
2021/04/29 01:39:13;;;;;;;163.70;27.65;;;;;;;;;;5055379;28;20111;-66
2021/04/29 01:41:40;;;;;;;110.93;23.40;;;;;;;;;;5055550;28;20083;-65
2021/04/29 01:44:06;;;;;;;156.00;25.33;;;;;;;;;;5055457;28;20373;-66
2021/04/29 01:46:32;;;;;;;134.07;24.17;;;;;;;;;;5055587;28;20039;-66
2021/04/29 01:48:58;;;;;;;89.00;22.40;;;;;;;;;;5055392;28;20035;-66
2021/04/29 01:51:23;;;;;;;96.75;21.88;;;;;;;;;;5055444;28;20100;-66
2021/04/29 01:53:49;;;;;;;73.72;20.67;;;;;;;;;;5055384;28;20370;-66
2021/04/29 01:56:14;;;;;;;116.07;22.80;;;;;;;;;;5055122;28;20040;-66
2021/04/29 01:58:40;;;;;;;95.72;21.77;;;;;;;;;;5054914;28;20078;-66
2021/04/29 02:01:05;;;;;;;107.78;20.95;;;;;;;;;;5054980;28;20389;-65
2021/04/29 02:03:31;;;;;;;119.63;24.08;;;;;;;;;;5054904;28;20155;-65
2021/04/29 02:05:56;;;;;;;75.50;19.45;;;;;;;;;;5055274;28;20025;-66
2021/04/29 02:08:21;;;;;;;86.90;21.15;;;;;;;;;;5055024;28;20029;-65
2021/04/29 02:10:47;;;;;;;356.83;32.95;;;;;;;;;;5055213;28;20067;-66
2021/04/29 02:13:13;;;;;;;202.18;29.45;;;;;;;;;;5054642;28;20421;-65
2021/04/29 02:15:43;;;;;;;109.43;22.98;;;;;;;;;;5054962;28;20064;-66
2021/04/29 02:18:11;;;;;;;99.95;22.20;;;;;;;;;;5054875;28;20124;-65
2021/04/29 02:20:39;;;;;;;121.20;22.50;;;;;;;;;;5054577;28;20032;-65
2021/04/29 02:23:11;;;;;;;109.47;21.52;;;;;;;;;;5054494;28;20079;-65
2021/04/29 02:25:38;;;;;;;80.90;21.50;;;;;;;;;;5054731;28;20112;-65
2021/04/29 02:28:03;;;;;;;94.43;19.90;;;;;;;;;;5054757;28;20123;-65
2021/04/29 02:30:28;;;;;;;71.10;19.10;;;;;;;;;;5054447;28;20040;-65
2021/04/29 02:32:54;;;;;;;86.30;20.05;;;;;;;;;;5054641;28;20112;-66
2021/04/29 02:35:19;;;;;;;87.18;19.27;;;;;;;;;;5054542;28;20492;-65
2021/04/29 02:37:47;;;;;;;94.82;20.08;;;;;;;;;;5054541;28;20025;-65
2021/04/29 02:40:13;;;;;;;72.47;18.15;;;;;;;;;;5054357;28;20061;-65
2021/04/29 02:42:39;;;;;;;76.15;17.88;;;;;;;;;;5054027;28;20021;-65
2021/04/29 02:45:09;;;;;;;63.97;17.00;;;;;;;;;;5054342;28;20465;-65
2021/04/29 02:47:35;;;;;;;74.88;17.73;;;;;;;;;;5054263;28;20033;-65
2021/04/29 02:50:00;;;;;;;86.35;17.88;;;;;;;;;;5053943;28;20576;-65
2021/04/29 02:52:26;;;;;;;115.53;19.33;;;;;;;;;;5054298;28;20060;-65
2021/04/29 02:54:51;;;;;;;85.47;18.52;;;;;;;;;;5053897;28;20440;-65
2021/04/29 02:57:23;;;;;;;64.90;17.75;;;;;;;;;;5054183;28;20023;-66
2021/04/29 02:59:48;;;;;;;114.78;23.35;;;;;;;;;;5053961;28;20182;-65
2021/04/29 03:02:14;;;;;;;99.88;23.98;;;;;;;;;;5054409;28;20475;-65
2021/04/29 03:04:39;;;;;;;98.47;24.35;;;;;;;;;;5053843;28;20024;-65
2021/04/29 03:07:05;;;;;;;109.60;23.63;;;;;;;;;;5054113;28;20469;-65
2021/04/29 03:09:31;;;;;;;88.47;23.63;;;;;;;;;;5053797;28;20036;-65
2021/04/29 03:11:56;;;;;;;93.55;24.42;;;;;;;;;;5053925;28;20064;-65
2021/04/29 03:14:21;;;;;;;105.53;24.33;;;;;;;;;;5053734;28;20039;-65
2021/04/29 03:16:46;;;;;;;79.93;21.90;;;;;;;;;;5053845;28;20459;-65
2021/04/29 03:19:12;;;;;;;94.57;23.45;;;;;;;;;;5053404;28;20021;-66
2021/04/29 03:21:37;;;;;;;88.70;22.33;;;;;;;;;;5053759;28;20036;-65
2021/04/29 03:24:03;;;;;;;85.00;21.48;;;;;;;;;;5053631;28;20406;-65
2021/04/29 03:26:28;;;;;;;80.20;21.00;;;;;;;;;;5053615;28;20107;-65
2021/04/29 03:28:53;;;;;;;82.85;20.80;;;;;;;;;;5053553;28;20025;-65
2021/04/29 03:31:19;;;;;;;72.85;20.27;;;;;;;;;;5053532;28;20041;-65
2021/04/29 03:33:44;;;;;;;87.03;21.88;;;;;;;;;;5053207;28;20040;-65
2021/04/29 03:36:09;;;;;;;64.60;19.77;;;;;;;;;;5053524;28;20075;-66
2021/04/29 03:38:34;;;;;;;82.75;20.73;;;;;;;;;;5052965;28;20041;-65
2021/04/29 03:41:00;;;;;;;79.30;20.70;;;;;;;;;;5053547;28;20083;-65
2021/04/29 03:43:25;;;;;;;81.90;21.48;;;;;;;;;;5053624;28;20037;-65
2021/04/29 03:45:50;;;;;;;78.68;19.90;;;;;;;;;;5053379;28;20468;-65
2021/04/29 03:48:16;;;;;;;65.07;19.08;;;;;;;;;;5053588;28;20361;-65
2021/04/29 03:50:41;;;;;;;78.03;20.27;;;;;;;;;;5053245;28;20393;-65
2021/04/29 03:53:06;;;;;;;84.53;19.55;;;;;;;;;;5053224;28;20072;-65
2021/04/29 03:55:31;;;;;;;58.05;18.73;;;;;;;;;;5052174;28;20021;-65
2021/04/29 03:57:57;;;;;;;73.40;20.55;;;;;;;;;;5053143;28;20099;-65
2021/04/29 04:00:22;;;;;;;70.00;19.58;;;;;;;;;;5053007;28;20373;-65
2021/04/29 04:02:47;;;;;;;69.30;20.20;;;;;;;;;;5052341;28;20457;-65
2021/04/29 04:05:13;;;;;;;65.00;18.83;;;;;;;;;;5052735;28;20040;-65
2021/04/29 04:07:38;;;;;;;90.07;21.30;;;;;;;;;;5052791;28;20435;-65
2021/04/29 04:10:04;;;;;;;84.07;20.27;;;;;;;;;;5052958;28;20024;-65
2021/04/29 04:12:29;;;;;;;68.50;19.13;;;;;;;;;;5053026;28;20051;-65
2021/04/29 04:14:54;;;;;;;65.00;18.90;;;;;;;;;;5053001;28;20036;-65
2021/04/29 04:17:20;;;;;;;81.38;20.13;;;;;;;;;;5052835;28;20010;-65
2021/04/29 04:19:45;;;;;;;70.80;20.73;;;;;;;;;;5053139;28;20047;-65
2021/04/29 04:22:10;;;;;;;64.47;18.75;;;;;;;;;;5052977;28;20033;-65
2021/04/29 04:24:36;;;;;;;72.07;19.38;;;;;;;;;;5052808;28;20013;-65
2021/04/29 04:27:01;;;;;;;68.18;18.70;;;;;;;;;;5052953;28;20033;-65
2021/04/29 04:29:26;;;;;;;74.63;19.92;;;;;;;;;;5052784;28;20112;-65
2021/04/29 04:31:51;;;;;;;76.95;20.00;;;;;;;;;;5052898;28;20043;-65
2021/04/29 04:34:17;;;;;;;57.97;18.02;;;;;;;;;;5052828;28;20079;-65
2021/04/29 04:36:42;;;;;;;71.68;19.13;;;;;;;;;;5052859;28;20492;-65
2021/04/29 04:39:07;;;;;;;70.20;19.15;;;;;;;;;;5052566;28;20147;-65
2021/04/29 04:41:32;;;;;;;81.53;20.40;;;;;;;;;;5052635;28;20025;-65
2021/04/29 04:43:58;;;;;;;74.97;19.02;;;;;;;;;;5052730;28;20041;-65
2021/04/29 04:46:23;;;;;;;75.60;19.83;;;;;;;;;;5053030;28;20024;-65
2021/04/29 04:48:49;;;;;;;62.00;20.45;;;;;;;;;;5052536;28;20058;-65
2021/04/29 04:51:14;;;;;;;77.20;20.60;;;;;;;;;;5052799;28;20040;-65
2021/04/29 04:53:40;;;;;;;86.40;20.15;;;;;;;;;;5052566;28;20009;-65
2021/04/29 04:56:05;;;;;;;78.13;21.17;;;;;;;;;;5052701;28;20073;-65
2021/04/29 04:58:30;;;;;;;81.90;21.38;;;;;;;;;;5052172;28;20072;-66
2021/04/29 05:00:56;;;;;;;72.93;20.63;;;;;;;;;;5052650;28;20066;-65
2021/04/29 05:03:21;;;;;;;115.35;22.73;;;;;;;;;;5052404;28;20536;-65
2021/04/29 05:05:46;;;;;;;83.40;21.20;;;;;;;;;;5053280;28;20128;-65
2021/04/29 05:08:12;;;;;;;78.57;20.20;;;;;;;;;;5056336;28;20021;-65
2021/04/29 05:10:37;;;;;;;75.00;19.85;;;;;;;;;;5056114;28;20373;-65
2021/04/29 05:13:03;;;;;;;86.53;20.77;;;;;;;;;;5056174;28;20037;-65
2021/04/29 05:15:29;;;;;;;90.70;21.85;;;;;;;;;;5055972;28;20017;-65
2021/04/29 05:17:54;;;;;;;83.28;21.77;;;;;;;;;;5055991;28;20462;-65
2021/04/29 05:20:20;;;;;;;107.55;22.85;;;;;;;;;;5055998;28;20048;-65
2021/04/29 05:22:46;;;;;;;118.45;23.38;;;;;;;;;;5055784;28;20021;-65
2021/04/29 05:25:11;;;;;;;84.10;22.65;;;;;;;;;;5055878;28;20108;-65
2021/04/29 05:27:37;;;;;;;70.32;19.35;;;;;;;;;;5055678;28;20170;-65
2021/04/29 05:30:03;;;;;;;103.72;21.10;;;;;;;;;;5055826;28;20048;-65
2021/04/29 05:32:28;;;;;;;68.40;18.50;;;;;;;;;;5055878;28;20025;-65
2021/04/29 05:34:53;;;;;;;79.22;18.73;;;;;;;;;;5056020;28;20044;-65
2021/04/29 05:37:19;;;;;;;95.13;20.30;;;;;;;;;;5055704;28;20024;-65
2021/04/29 05:39:44;;;;;;;175.27;26.75;;;;;;;;;;5055225;28;20132;-66
2021/04/29 05:42:10;;;;;;;118.47;21.58;;;;;;;;;;5055628;28;20044;-65
2021/04/29 05:44:35;;;;;;;150.68;21.65;;;;;;;;;;5055485;28;20108;-66
2021/04/29 05:47:00;;;;;;;99.25;18.98;;;;;;;;;;5055663;28;20047;-66
2021/04/29 05:49:26;;;;;;;186.95;20.30;;;;;;;;;;5055413;28;20078;-66
2021/04/29 05:51:51;;;;;;;581.42;37.67;;;;;;;;;;5055503;28;20017;-67
2021/04/29 05:54:16;;;;;;;784.78;48.00;;;;;;;;;;5055355;28;20112;-67
2021/04/29 05:56:41;;;;;;;117.38;14.52;;;;;;;;;;5055358;28;20071;-67
2021/04/29 05:59:07;;;;;;;326.05;23.67;;;;;;;;;;5055152;28;20057;-67
2021/04/29 06:01:32;;;;;;;389.55;27.73;;;;;;;;;;5054928;28;20033;-67
2021/04/29 06:03:57;;;;;;;1627.13;91.30;;;;;;;;;;5055166;28;20040;-67
2021/04/29 06:06:22;;;;;;;1999.90;116.68;;;;;;;;;;5055123;28;20469;-67
2021/04/29 06:08:48;;;;;;;1170.05;65.07;;;;;;;;;;5054731;28;20082;-67
2021/04/29 06:11:14;;;;;;;1498.85;79.95;;;;;;;;;;5055173;28;20025;-68
2021/04/29 06:13:39;;;;;;;1999.90;123.50;;;;;;;;;;5053668;28;20458;-67
2021/04/29 06:16:05;;;;;;;1757.45;101.80;;;;;;;;;;5055045;28;20481;-68
2021/04/29 06:18:30;;;;;;;1999.90;226.63;;;;;;;;;;5054132;28;20033;-67
2021/04/29 06:20:56;;;;;;;1292.60;74.65;;;;;;;;;;5054785;28;20049;-67
2021/04/29 06:23:21;;;;;;;1999.90;161.32;;;;;;;;;;5054869;28;20469;-68
2021/04/29 06:25:46;;;;;;;1664.70;97.00;;;;;;;;;;5054711;28;20033;-67
2021/04/29 06:28:11;;;;;;;1953.32;106.03;;;;;;;;;;5054886;28;20155;-68
2021/04/29 06:30:40;;;;;;;1999.90;132.30;;;;;;;;;;5054848;28;20059;-65
2021/04/29 06:33:05;;;;;;;1873.20;110.93;;;;;;;;;;5054844;28;20036;-65
2021/04/29 06:35:31;;;;;;;1136.55;66.43;;;;;;;;;;5054594;28;20472;-65
2021/04/29 06:37:56;;;;;;;985.70;57.58;;;;;;;;;;5054481;28;20025;-65
2021/04/29 06:40:21;;;;;;;607.15;35.75;;;;;;;;;;5054121;28;20576;-65
2021/04/29 06:42:46;;;;;;;288.80;18.45;;;;;;;;;;5054417;28;20025;-65
2021/04/29 06:45:12;;;;;;;56.03;7.32;;;;;;;;;;5054384;28;20082;-65
2021/04/29 06:47:37;;;;;;;89.38;8.50;;;;;;;;;;5054263;28;20028;-65
2021/04/29 06:50:03;;;;;;;50.30;6.57;;;;;;;;;;5054602;28;20055;-65
2021/04/29 06:52:28;;;;;;;36.70;6.63;;;;;;;;;;5053580;28;20063;-65
2021/04/29 06:54:53;;;;;;;35.58;5.30;;;;;;;;;;5054153;28;20033;-65
2021/04/29 06:57:19;;;;;;;29.30;5.43;;;;;;;;;;5054179;28;20100;-65
2021/04/29 06:59:44;;;;;;;24.10;5.43;;;;;;;;;;5053759;28;20041;-65
2021/04/29 07:02:09;;;;;;;21.88;4.90;;;;;;;;;;5054125;28;20044;-65
2021/04/29 07:04:35;;;;;;;12.40;4.60;;;;;;;;;;5053879;28;20029;-65
2021/04/29 07:07:00;;;;;;;9.77;4.40;;;;;;;;;;5054075;28;20428;-65
2021/04/29 07:09:26;;;;;;;12.60;4.45;;;;;;;;;;5053847;28;20025;-65
2021/04/29 07:11:53;;;;;;;8.75;4.60;;;;;;;;;;5053885;28;20365;-65
2021/04/29 07:14:18;;;;;;;7.90;4.22;;;;;;;;;;5053691;28;20025;-65
2021/04/29 07:16:44;;;;;;;7.32;4.18;;;;;;;;;;5053863;28;20035;-65
2021/04/29 07:19:09;;;;;;;7.18;4.15;;;;;;;;;;5053312;28;20102;-65
2021/04/29 07:21:34;;;;;;;5.43;4.07;;;;;;;;;;5053735;28;20029;-66
2021/04/29 07:24:00;;;;;;;6.05;4.10;;;;;;;;;;5053660;28;20102;-65
2021/04/29 07:26:25;;;;;;;6.50;4.13;;;;;;;;;;5053688;28;20057;-66
2021/04/29 07:28:51;;;;;;;7.55;4.35;;;;;;;;;;5052251;28;20083;-66
2021/04/29 07:31:16;;;;;;;6.00;4.55;;;;;;;;;;5053302;28;20473;-65
2021/04/29 07:33:41;;;;;;;6.85;4.30;;;;;;;;;;5053525;28;20066;-66
2021/04/29 07:36:07;;;;;;;5.93;4.00;;;;;;;;;;5053536;28;20381;-66
2021/04/29 07:38:32;;;;;;;8.82;4.20;;;;;;;;;;5053336;28;20488;-66
2021/04/29 07:40:58;;;;;;;5.95;4.10;;;;;;;;;;5052909;28;20044;-66
2021/04/29 07:43:23;;;;;;;7.55;4.45;;;;;;;;;;5033530;28;20442;-66
2021/04/29 07:45:48;;;;;;;5.90;4.28;;;;;;;;;;5033388;28;20103;-66
2021/04/29 07:48:14;;;;;;;6.95;4.40;;;;;;;;;;5033748;28;20057;-66
2021/04/29 07:50:39;;;;;;;5.32;3.90;;;;;;;;;;5033247;28;20537;-66
2021/04/29 07:53:04;;;;;;;5.97;4.43;;;;;;;;;;5033018;28;20030;-65
2021/04/29 07:55:30;;;;;;;7.20;4.40;;;;;;;;;;5033144;28;20056;-66
2021/04/29 07:57:55;;;;;;;8.48;4.20;;;;;;;;;;5033131;28;20032;-66
2021/04/29 08:00:21;;;;;;;7.82;3.95;;;;;;;;;;5033457;28;20041;-66
2021/04/29 08:02:46;;;;;;;6.32;4.28;;;;;;;;;;5033175;28;20083;-66
2021/04/29 08:05:12;;;;;;;6.72;3.90;;;;;;;;;;5033087;28;20359;-66
2021/04/29 08:07:37;;;;;;;9.07;4.50;;;;;;;;;;5032849;28;20037;-66
2021/04/29 08:10:07;;;;;;;5.97;4.13;;;;;;;;;;5032108;28;20382;-66
2021/04/29 08:12:32;;;;;;;7.72;4.30;;;;;;;;;;5032985;28;20051;-66
2021/04/29 08:14:59;;;;;;;9.48;4.35;;;;;;;;;;5029445;28;20116;-66
2021/04/29 08:17:25;;;;;;;6.75;4.32;;;;;;;;;;5031222;28;20382;-66
2021/04/29 08:19:52;;;;;;;10.30;4.93;;;;;;;;;;5032214;28;20049;-66
2021/04/29 08:22:18;;;;;;;8.63;4.85;;;;;;;;;;5034461;28;20119;-66
2021/04/29 08:24:43;;;;;;;8.45;5.03;;;;;;;;;;5046684;28;20151;-66
2021/04/29 08:27:08;;;;;;;7.22;4.13;;;;;;;;;;5047688;28;20632;-66
2021/04/29 08:29:34;;;;;;;9.43;5.05;;;;;;;;;;5045422;28;20073;-66
2021/04/29 08:32:00;;;;;;;7.47;4.72;;;;;;;;;;5047139;28;20013;-66
2021/04/29 08:34:25;;;;;;;8.50;4.57;;;;;;;;;;5055954;28;20459;-66
2021/04/29 08:36:50;;;;;;;7.10;4.53;;;;;;;;;;5064168;28;20032;-66
2021/04/29 08:39:16;;;;;;;6.45;4.28;;;;;;;;;;5064574;28;20094;-66
2021/04/29 08:41:43;;;;;;;7.30;4.78;;;;;;;;;;5060956;28;20025;-66
2021/04/29 08:44:08;;;;;;;10.00;4.35;;;;;;;;;;5047450;28;20029;-66
2021/04/29 08:46:34;;;;;;;7.05;3.97;;;;;;;;;;5048457;28;20382;-66
2021/04/29 08:48:59;;;;;;;7.45;4.13;;;;;;;;;;5047565;28;20040;-66
2021/04/29 08:51:25;;;;;;;8.20;3.90;;;;;;;;;;5048525;28;20041;-66
2021/04/29 08:53:51;;;;;;;5.63;4.10;;;;;;;;;;5048232;28;20135;-66
2021/04/29 08:56:21;;;;;;;6.05;3.92;;;;;;;;;;5047058;28;20061;-66
2021/04/29 08:58:47;;;;;;;10.82;4.82;;;;;;;;;;5048159;28;20048;-66
2021/04/29 09:01:12;;;;;;;11.48;4.47;;;;;;;;;;5048166;28;20021;-66
2021/04/29 09:03:39;;;;;;;6.47;4.30;;;;;;;;;;5050211;28;20025;-66
2021/04/29 09:06:05;;;;;;;5.70;4.32;;;;;;;;;;5052853;28;20041;-66
2021/04/29 09:08:31;;;;;;;7.40;5.03;;;;;;;;;;5053014;28;20029;-66
2021/04/29 09:11:07;;;;;;;9.00;4.60;;;;;;;;;;5051865;28;20043;-66
2021/04/29 09:13:32;;;;;;;7.60;4.78;;;;;;;;;;5052658;28;20037;-66
2021/04/29 09:16:04;;;;;;;7.07;4.05;;;;;;;;;;5052857;28;20124;-66
2021/04/29 09:18:32;;;;;;;10.10;5.05;;;;;;;;;;5052143;28;20033;-66
2021/04/29 09:21:05;;;;;;;7.68;4.85;;;;;;;;;;5052437;28;20037;-66
2021/04/29 09:23:32;;;;;;;9.43;5.47;;;;;;;;;;5051812;28;20473;-66
2021/04/29 09:26:05;;;;;;;9.65;5.32;;;;;;;;;;5046357;28;20029;-66
2021/04/29 09:28:36;;;;;;;9.15;4.97;;;;;;;;;;5045284;28;20025;-66
2021/04/29 09:31:06;;;;;;;13.75;5.20;;;;;;;;;;5051053;28;20021;-66
2021/04/29 09:33:33;;;;;;;8.75;4.22;;;;;;;;;;5051558;28;20029;-66
2021/04/29 09:35:58;;;;;;;8.38;4.93;;;;;;;;;;5052542;28;20060;-66
2021/04/29 09:38:30;;;;;;;10.05;4.30;;;;;;;;;;5051797;28;20500;-66
2021/04/29 09:40:55;;;;;;;8.57;4.32;;;;;;;;;;5051644;28;20076;-66
2021/04/29 09:43:20;;;;;;;7.60;4.60;;;;;;;;;;5051162;28;20056;-66
2021/04/29 09:45:53;;;;;;;8.40;4.10;;;;;;;;;;5051714;28;20017;-66
2021/04/29 09:48:21;;;;;;;5.65;3.78;;;;;;;;;;5051280;28;20465;-66
2021/04/29 09:50:48;;;;;;;6.25;3.60;;;;;;;;;;5051606;28;20047;-65
2021/04/29 09:53:14;;;;;;;4.63;3.28;;;;;;;;;;5050340;28;20033;-66
2021/04/29 09:55:41;;;;;;;6.63;3.30;;;;;;;;;;5051043;28;20029;-66
2021/04/29 10:00:40;;;;;;;8.35;3.40;;;;;;;;;;5050540;28;20041;-66
2021/04/29 10:03:05;;;;;;;5.55;3.30;;;;;;;;;;5051054;28;20029;-66
2021/04/29 10:05:38;;;;;;;5.43;3.60;;;;;;;;;;5048808;28;20032;-66
2021/04/29 10:08:07;;;;;;;5.78;3.63;;;;;;;;;;5050782;28;20073;-66
2021/04/29 10:10:33;;;;;;;4.53;3.20;;;;;;;;;;5050790;28;20056;-66
2021/04/29 10:13:01;;;;;;;4.55;3.60;;;;;;;;;;5049974;28;20037;-66
2021/04/29 10:15:27;;;;;;;5.85;3.35;;;;;;;;;;5051150;28;20024;-66
2021/04/29 10:17:52;;;;;;;6.45;3.80;;;;;;;;;;5049959;28;20413;-66
2021/04/29 10:20:17;;;;;;;6.53;3.55;;;;;;;;;;5051271;28;20036;-66
2021/04/29 10:22:43;;;;;;;5.72;3.83;;;;;;;;;;5050860;28;20428;-66
2021/04/29 10:25:08;;;;;;;8.27;3.88;;;;;;;;;;5051169;28;20021;-65
2021/04/29 10:27:34;;;;;;;5.75;3.50;;;;;;;;;;5050662;28;20075;-65
2021/04/29 10:30:09;;;;;;;6.88;3.25;;;;;;;;;;5046744;28;20032;-66
2021/04/29 10:32:35;;;;;;;8.55;2.50;;;;;;;;;;5050615;28;20021;-65
2021/04/29 10:35:13;;;;;;;5.50;2.97;;;;;;;;;;5049565;28;20128;-67
2021/04/29 10:37:38;;;;;;;7.00;3.42;;;;;;;;;;5033387;28;20028;-67
2021/04/29 10:40:05;;;;;;;5.60;3.17;;;;;;;;;;5045410;28;20405;-67
2021/04/29 10:42:42;;;;;;;5.63;3.60;;;;;;;;;;5046626;28;20021;-67
2021/04/29 10:45:08;;;;;;;5.05;3.15;;;;;;;;;;5044421;28;20066;-67
2021/04/29 10:47:34;;;;;;;7.90;3.45;;;;;;;;;;5047398;28;20033;-67
2021/04/29 10:50:06;;;;;;;6.63;3.90;;;;;;;;;;5046719;28;20051;-67
2021/04/29 10:52:31;;;;;;;7.47;3.58;;;;;;;;;;5046609;28;20060;-67
2021/04/29 10:54:57;;;;;;;5.80;3.55;;;;;;;;;;5046256;28;20119;-67
2021/04/29 10:57:22;;;;;;;5.22;3.40;;;;;;;;;;5047196;28;20028;-67
2021/04/29 10:59:50;;;;;;;6.20;3.72;;;;;;;;;;5045441;28;20052;-67
2021/04/29 11:02:29;;;;;;;5.80;3.17;;;;;;;;;;5047020;28;20470;-67
2021/04/29 11:04:55;;;;;;;12.27;4.20;;;;;;;;;;5044607;28;20028;-67
2021/04/29 11:07:21;;;;;;;7.13;3.83;;;;;;;;;;5044843;28;20718;-67
2021/04/29 11:10:05;;;;;;;6.50;3.47;;;;;;;;;;5046588;28;20025;-67
2021/04/29 11:12:42;;;;;;;7.95;3.80;;;;;;;;;;5046554;28;20055;-67
2021/04/29 11:15:26;;;;;;;11.20;4.10;;;;;;;;;;5046103;28;20082;-67
2021/04/29 11:18:08;;;;;;;5.53;3.70;;;;;;;;;;5046940;28;20594;-67
2021/04/29 11:21:00;;;;;;;6.72;3.22;;;;;;;;;;5045825;28;20051;-67
2021/04/29 11:23:46;;;;;;;8.00;3.30;;;;;;;;;;5044058;28;20056;-66
2021/04/29 11:26:16;;;;;;;5.82;2.95;;;;;;;;;;5044900;28;20049;-67
2021/04/29 11:28:41;;;;;;;4.78;2.97;;;;;;;;;;5046079;28;20594;-67
2021/04/29 11:31:06;;;;;;;5.35;3.42;;;;;;;;;;5046001;28;20036;-67
2021/04/29 11:33:35;;;;;;;3.92;2.72;;;;;;;;;;5046647;28;20060;-67
2021/04/29 11:36:13;;;;;;;5.25;2.70;;;;;;;;;;5046359;28;20452;-67
2021/04/29 11:38:38;;;;;;;4.25;2.45;;;;;;;;;;5045852;28;20052;-67
2021/04/29 11:41:10;;;;;;;5.55;3.80;;;;;;;;;;5046278;28;20041;-67
2021/04/29 11:43:36;;;;;;;6.50;3.20;;;;;;;;;;5046475;28;20048;-66
2021/04/29 11:46:01;;;;;;;5.30;3.17;;;;;;;;;;5045311;28;20355;-66
2021/04/29 11:48:26;;;;;;;10.10;3.60;;;;;;;;;;5045168;28;20068;-66
2021/04/29 11:50:53;;;;;;;6.93;3.65;;;;;;;;;;5045219;28;20044;-67
2021/04/29 11:53:29;;;;;;;7.82;4.57;;;;;;;;;;5045189;28;20021;-66
2021/04/29 11:55:54;;;;;;;;;;;;;;;;;;5046203;28;20032;-66
2021/04/29 11:58:20;;;;;;;7.18;4.35;;;;;;;;;;5046124;28;19994;-67
2021/04/29 12:00:47;;;;;;;5.80;3.42;;;;;;;;;;5032627;28;20067;-66
2021/04/29 12:03:12;;;;;;;8.23;3.20;;;;;;;;;;5046090;28;20548;-66
2021/04/29 12:05:38;;;;;;;5.65;3.00;;;;;;;;;;5045436;28;20021;-67
2021/04/29 12:08:04;;;;;;;6.97;2.67;;;;;;;;;;5045360;28;20128;-67
2021/04/29 12:10:49;;;;;;;4.88;2.58;;;;;;;;;;5045778;28;20036;-66
2021/04/29 12:13:15;;;;;;;4.57;2.47;;;;;;;;;;5045529;28;20021;-67
2021/04/29 12:15:41;;;;;;;4.88;2.30;;;;;;;;;;5044634;28;20098;-66
2021/04/29 12:18:10;;;;;;;5.68;2.55;;;;;;;;;;5045177;28;20076;-66
2021/04/29 12:20:35;;;;;;;5.13;2.40;;;;;;;;;;5046013;28;20029;-67
2021/04/29 12:23:00;;;;;;;3.08;2.00;;;;;;;;;;5045270;28;20039;-67
2021/04/29 12:25:26;;;;;;;6.40;2.30;;;;;;;;;;5046212;28;20503;-66
2021/04/29 12:27:51;;;;;;;3.97;1.98;;;;;;;;;;5037566;28;20049;-66
2021/04/29 12:30:17;;;;;;;4.78;1.70;;;;;;;;;;5043758;28;20032;-66
2021/04/29 12:32:44;;;;;;;4.05;1.85;;;;;;;;;;5043161;28;20055;-67
2021/04/29 12:35:10;;;;;;;8.27;1.92;;;;;;;;;;5045250;28;20028;-66
2021/04/29 12:37:35;;;;;;;4.38;1.77;;;;;;;;;;5045426;28;20037;-67
2021/04/29 12:40:00;;;;;;;4.68;1.75;;;;;;;;;;5044874;28;20229;-66
2021/04/29 12:42:26;;;;;;;3.55;1.70;;;;;;;;;;5044310;28;20037;-66
2021/04/29 12:44:58;;;;;;;3.80;1.58;;;;;;;;;;5045013;28;20450;-67
2021/04/29 12:47:25;;;;;;;5.20;1.70;;;;;;;;;;5045439;28;20027;-66
2021/04/29 12:49:57;;;;;;;6.35;1.73;;;;;;;;;;5045196;28;20063;-67
2021/04/29 12:52:22;;;;;;;4.50;1.85;;;;;;;;;;5044696;28;20418;-67
2021/04/29 12:54:50;;;;;;;4.43;1.83;;;;;;;;;;5045676;28;20060;-66
2021/04/29 12:57:20;;;;;;;3.55;1.90;;;;;;;;;;5045871;28;20059;-66
2021/04/29 12:59:46;;;;;;;3.75;1.70;;;;;;;;;;5044723;28;20040;-66
2021/04/29 13:02:11;;;;;;;3.42;1.75;;;;;;;;;;5044641;28;20025;-66
2021/04/29 13:04:40;;;;;;;3.70;1.92;;;;;;;;;;5044688;28;20435;-66
2021/04/29 13:07:07;;;;;;;3.70;1.65;;;;;;;;;;5044968;28;20040;-66
2021/04/29 13:09:49;;;;;;;4.90;1.98;;;;;;;;;;5044753;28;20025;-66
2021/04/29 13:12:15;;;;;;;2.35;1.40;;;;;;;;;;5044739;28;20108;-66
2021/04/29 13:14:41;;;;;;;5.20;1.52;;;;;;;;;;5044243;28;20047;-66
2021/04/29 13:17:14;;;;;;;3.70;1.80;;;;;;;;;;5044728;28;20571;-66
2021/04/29 13:19:43;;;;;;;3.75;1.55;;;;;;;;;;5044535;28;20469;-66
2021/04/29 13:22:09;;;;;;;1.90;0.93;;;;;;;;;;5044874;28;20068;-66
2021/04/29 13:24:35;;;;;;;2.83;1.13;;;;;;;;;;5044870;28;20083;-67
2021/04/29 13:27:01;;;;;;;2.10;1.30;;;;;;;;;;5046610;28;20028;-66
2021/04/29 13:29:27;;;;;;;3.40;1.38;;;;;;;;;;5048281;28;20052;-67
2021/04/29 13:31:52;;;;;;;2.95;1.20;;;;;;;;;;5046701;28;20063;-66
2021/04/29 13:34:17;;;;;;;3.13;1.17;;;;;;;;;;5047326;28;20339;-66
2021/04/29 13:36:43;;;;;;;2.60;1.20;;;;;;;;;;5047840;28;20491;-66
2021/04/29 13:39:08;;;;;;;3.40;1.05;;;;;;;;;;5048248;28;20045;-66
2021/04/29 13:41:34;;;;;;;3.78;1.30;;;;;;;;;;5048091;28;20024;-66
2021/04/29 13:43:59;;;;;;;2.42;1.45;;;;;;;;;;5048139;28;20159;-66
2021/04/29 13:46:24;;;;;;;2.35;1.20;;;;;;;;;;5047875;28;20086;-66
2021/04/29 13:48:49;;;;;;;3.00;1.40;;;;;;;;;;5047663;28;20393;-66
2021/04/29 13:51:15;;;;;;;4.45;1.33;;;;;;;;;;5048796;28;20037;-66
2021/04/29 13:53:41;;;;;;;2.83;1.40;;;;;;;;;;5047581;28;20118;-66
2021/04/29 13:56:07;;;;;;;2.10;1.40;;;;;;;;;;5047637;28;20025;-66
2021/04/29 13:58:33;;;;;;;2.35;1.30;;;;;;;;;;5047342;28;20040;-66
2021/04/29 14:00:58;;;;;;;2.95;1.40;;;;;;;;;;5047586;28;20480;-66
2021/04/29 14:03:23;;;;;;;2.97;1.63;;;;;;;;;;5048213;28;20056;-66
2021/04/29 14:05:48;;;;;;;5.30;1.75;;;;;;;;;;5047220;28;20688;-66
2021/04/29 14:08:14;;;;;;;6.75;1.60;;;;;;;;;;5047558;28;20140;-66
2021/04/29 14:10:39;;;;;;;5.28;1.58;;;;;;;;;;5047559;28;20074;-66
2021/04/29 14:13:05;;;;;;;3.60;1.98;;;;;;;;;;5048081;28;20037;-66
2021/04/29 14:15:30;;;;;;;3.88;1.60;;;;;;;;;;5047917;28;20111;-66
2021/04/29 14:17:56;;;;;;;4.25;1.60;;;;;;;;;;5048105;28;20104;-66
2021/04/29 14:20:22;;;;;;;3.08;1.50;;;;;;;;;;5046869;28;20443;-66
2021/04/29 14:22:47;;;;;;;3.35;1.85;;;;;;;;;;5047644;28;20029;-66
2021/04/29 14:25:12;;;;;;;2.90;1.33;;;;;;;;;;5046556;28;20025;-66